sensor_id;sensor_type;location;lat;lon;timestamp;temperature;humidity
69189;DHT22;56302;52.322;5.926;2023-04-25T00:01:35;5.90;95.30
69189;DHT22;56302;52.322;5.926;2023-04-25T00:04:02;6.00;94.60
69189;DHT22;56302;52.322;5.926;2023-04-25T00:06:28;6.00;94.10
69189;DHT22;56302;52.322;5.926;2023-04-25T00:08:55;6.00;93.60
69189;DHT22;56302;52.322;5.926;2023-04-25T00:11:22;6.00;93.30
69189;DHT22;56302;52.322;5.926;2023-04-25T00:13:47;6.00;93.10
69189;DHT22;56302;52.322;5.926;2023-04-25T00:16:14;5.90;92.90
69189;DHT22;56302;52.322;5.926;2023-04-25T00:18:42;5.90;92.90
69189;DHT22;56302;52.322;5.926;2023-04-25T00:21:08;5.80;93.10
69189;DHT22;56302;52.322;5.926;2023-04-25T00:23:33;5.70;93.40
69189;DHT22;56302;52.322;5.926;2023-04-25T00:26:01;5.70;93.60
69189;DHT22;56302;52.322;5.926;2023-04-25T00:28:27;5.70;93.80
69189;DHT22;56302;52.322;5.926;2023-04-25T00:30:52;5.80;93.70
69189;DHT22;56302;52.322;5.926;2023-04-25T00:33:18;5.80;93.60
69189;DHT22;56302;52.322;5.926;2023-04-25T00:35:43;5.80;93.50
69189;DHT22;56302;52.322;5.926;2023-04-25T00:38:09;5.70;93.30
69189;DHT22;56302;52.322;5.926;2023-04-25T00:40:35;5.50;93.50
69189;DHT22;56302;52.322;5.926;2023-04-25T00:43:00;5.40;94.20
69189;DHT22;56302;52.322;5.926;2023-04-25T00:45:29;5.30;94.80
69189;DHT22;56302;52.322;5.926;2023-04-25T00:47:55;5.20;95.50
69189;DHT22;56302;52.322;5.926;2023-04-25T00:50:21;5.10;96.00
69189;DHT22;56302;52.322;5.926;2023-04-25T00:52:47;5.20;96.50
69189;DHT22;56302;52.322;5.926;2023-04-25T00:55:12;5.10;97.00
69189;DHT22;56302;52.322;5.926;2023-04-25T00:57:38;5.10;97.30
69189;DHT22;56302;52.322;5.926;2023-04-25T01:00:06;5.20;97.80
69189;DHT22;56302;52.322;5.926;2023-04-25T01:02:33;5.30;97.90
69189;DHT22;56302;52.322;5.926;2023-04-25T01:04:58;5.30;97.80
69189;DHT22;56302;52.322;5.926;2023-04-25T01:07:24;5.40;97.40
69189;DHT22;56302;52.322;5.926;2023-04-25T01:09:51;5.40;96.80
69189;DHT22;56302;52.322;5.926;2023-04-25T01:12:18;5.40;96.10
69189;DHT22;56302;52.322;5.926;2023-04-25T01:14:43;5.40;95.60
69189;DHT22;56302;52.322;5.926;2023-04-25T01:17:10;5.30;95.00
69189;DHT22;56302;52.322;5.926;2023-04-25T01:19:36;5.30;94.50
69189;DHT22;56302;52.322;5.926;2023-04-25T01:22:02;5.30;94.10
69189;DHT22;56302;52.322;5.926;2023-04-25T01:24:27;5.30;93.60
69189;DHT22;56302;52.322;5.926;2023-04-25T01:26:54;5.30;93.10
69189;DHT22;56302;52.322;5.926;2023-04-25T01:29:22;5.30;93.00
69189;DHT22;56302;52.322;5.926;2023-04-25T01:31:48;5.30;92.90
69189;DHT22;56302;52.322;5.926;2023-04-25T01:34:15;5.30;92.80
69189;DHT22;56302;52.322;5.926;2023-04-25T01:36:40;5.30;92.90
69189;DHT22;56302;52.322;5.926;2023-04-25T01:39:06;5.20;93.10
69189;DHT22;56302;52.322;5.926;2023-04-25T01:41:32;5.20;93.20
69189;DHT22;56302;52.322;5.926;2023-04-25T01:44:00;5.20;93.50
69189;DHT22;56302;52.322;5.926;2023-04-25T01:46:26;5.20;93.50
69189;DHT22;56302;52.322;5.926;2023-04-25T01:48:52;5.10;93.30
69189;DHT22;56302;52.322;5.926;2023-04-25T01:51:18;5.00;93.30
69189;DHT22;56302;52.322;5.926;2023-04-25T01:53:44;5.00;93.40
69189;DHT22;56302;52.322;5.926;2023-04-25T01:56:09;4.90;93.20
69189;DHT22;56302;52.322;5.926;2023-04-25T01:58:35;4.80;93.40
69189;DHT22;56302;52.322;5.926;2023-04-25T02:01:01;4.80;93.80
69189;DHT22;56302;52.322;5.926;2023-04-25T02:03:26;4.70;94.00
69189;DHT22;56302;52.322;5.926;2023-04-25T02:05:52;4.70;94.40
69189;DHT22;56302;52.322;5.926;2023-04-25T02:08:17;4.70;94.30
69189;DHT22;56302;52.322;5.926;2023-04-25T02:10:44;4.70;94.10
69189;DHT22;56302;52.322;5.926;2023-04-25T02:13:09;4.60;94.00
69189;DHT22;56302;52.322;5.926;2023-04-25T02:15:35;4.50;94.20
69189;DHT22;56302;52.322;5.926;2023-04-25T02:18:01;4.40;94.60
69189;DHT22;56302;52.322;5.926;2023-04-25T02:20:28;4.40;94.90
69189;DHT22;56302;52.322;5.926;2023-04-25T02:22:54;4.40;94.70
69189;DHT22;56302;52.322;5.926;2023-04-25T02:25:20;4.50;94.60
69189;DHT22;56302;52.322;5.926;2023-04-25T02:27:47;4.50;94.20
69189;DHT22;56302;52.322;5.926;2023-04-25T02:30:13;4.50;93.50
69189;DHT22;56302;52.322;5.926;2023-04-25T02:32:39;4.50;93.00
69189;DHT22;56302;52.322;5.926;2023-04-25T02:35:05;4.60;92.70
69189;DHT22;56302;52.322;5.926;2023-04-25T02:37:35;4.60;92.50
69189;DHT22;56302;52.322;5.926;2023-04-25T02:40:01;4.70;92.30
69189;DHT22;56302;52.322;5.926;2023-04-25T02:42:28;4.70;92.20
69189;DHT22;56302;52.322;5.926;2023-04-25T02:44:53;4.70;92.20
69189;DHT22;56302;52.322;5.926;2023-04-25T02:47:19;4.70;92.30
69189;DHT22;56302;52.322;5.926;2023-04-25T02:49:45;4.70;92.40
69189;DHT22;56302;52.322;5.926;2023-04-25T02:52:11;4.70;92.30
69189;DHT22;56302;52.322;5.926;2023-04-25T02:54:38;4.80;92.30
69189;DHT22;56302;52.322;5.926;2023-04-25T02:57:04;4.80;92.40
69189;DHT22;56302;52.322;5.926;2023-04-25T02:59:29;4.80;92.40
69189;DHT22;56302;52.322;5.926;2023-04-25T03:01:55;4.80;92.30
69189;DHT22;56302;52.322;5.926;2023-04-25T03:04:20;4.80;92.30
69189;DHT22;56302;52.322;5.926;2023-04-25T03:06:49;4.80;92.40
69189;DHT22;56302;52.322;5.926;2023-04-25T03:09:15;4.80;92.40
69189;DHT22;56302;52.322;5.926;2023-04-25T03:11:40;4.80;92.40
69189;DHT22;56302;52.322;5.926;2023-04-25T03:14:06;4.80;92.60
69189;DHT22;56302;52.322;5.926;2023-04-25T03:16:31;4.70;93.00
69189;DHT22;56302;52.322;5.926;2023-04-25T03:18:57;4.70;93.40
69189;DHT22;56302;52.322;5.926;2023-04-25T03:21:23;4.50;93.80
69189;DHT22;56302;52.322;5.926;2023-04-25T03:23:48;4.30;94.90
69189;DHT22;56302;52.322;5.926;2023-04-25T03:26:14;4.20;95.90
69189;DHT22;56302;52.322;5.926;2023-04-25T03:28:39;4.10;96.60
69189;DHT22;56302;52.322;5.926;2023-04-25T03:31:05;4.10;97.30
69189;DHT22;56302;52.322;5.926;2023-04-25T03:33:31;4.00;97.90
69189;DHT22;56302;52.322;5.926;2023-04-25T03:35:56;4.10;98.30
69189;DHT22;56302;52.322;5.926;2023-04-25T03:38:22;4.20;98.40
69189;DHT22;56302;52.322;5.926;2023-04-25T03:40:48;4.30;98.40
69189;DHT22;56302;52.322;5.926;2023-04-25T03:43:13;4.40;98.30
69189;DHT22;56302;52.322;5.926;2023-04-25T03:45:39;4.40;98.00
69189;DHT22;56302;52.322;5.926;2023-04-25T03:48:05;4.50;97.80
69189;DHT22;56302;52.322;5.926;2023-04-25T03:50:30;4.50;97.50
69189;DHT22;56302;52.322;5.926;2023-04-25T03:52:56;4.60;97.20
69189;DHT22;56302;52.322;5.926;2023-04-25T03:55:21;4.60;96.90
69189;DHT22;56302;52.322;5.926;2023-04-25T03:57:47;4.60;96.50
69189;DHT22;56302;52.322;5.926;2023-04-25T04:00:13;4.60;96.20
69189;DHT22;56302;52.322;5.926;2023-04-25T04:02:38;4.70;95.90
69189;DHT22;56302;52.322;5.926;2023-04-25T04:05:04;4.60;95.70
69189;DHT22;56302;52.322;5.926;2023-04-25T04:07:31;4.60;95.80
69189;DHT22;56302;52.322;5.926;2023-04-25T04:09:58;4.60;95.80
69189;DHT22;56302;52.322;5.926;2023-04-25T04:12:23;4.60;95.80
69189;DHT22;56302;52.322;5.926;2023-04-25T04:14:49;4.60;95.70
69189;DHT22;56302;52.322;5.926;2023-04-25T04:17:15;4.60;95.70
69189;DHT22;56302;52.322;5.926;2023-04-25T04:19:41;4.60;95.60
69189;DHT22;56302;52.322;5.926;2023-04-25T04:22:06;4.60;95.60
69189;DHT22;56302;52.322;5.926;2023-04-25T04:24:32;4.50;95.70
69189;DHT22;56302;52.322;5.926;2023-04-25T04:26:58;4.50;95.70
69189;DHT22;56302;52.322;5.926;2023-04-25T04:29:24;4.40;96.00
69189;DHT22;56302;52.322;5.926;2023-04-25T04:31:50;4.50;96.20
69189;DHT22;56302;52.322;5.926;2023-04-25T04:34:17;4.50;96.20
69189;DHT22;56302;52.322;5.926;2023-04-25T04:36:44;4.40;96.30
69189;DHT22;56302;52.322;5.926;2023-04-25T04:39:11;4.40;96.50
69189;DHT22;56302;52.322;5.926;2023-04-25T04:41:37;4.40;96.20
69189;DHT22;56302;52.322;5.926;2023-04-25T04:44:05;4.30;96.40
69189;DHT22;56302;52.322;5.926;2023-04-25T04:46:32;4.20;96.60
69189;DHT22;56302;52.322;5.926;2023-04-25T04:49:05;4.10;96.90
69189;DHT22;56302;52.322;5.926;2023-04-25T04:51:31;4.00;97.70
69189;DHT22;56302;52.322;5.926;2023-04-25T04:53:57;4.00;98.20
69189;DHT22;56302;52.322;5.926;2023-04-25T04:56:24;4.00;97.70
69189;DHT22;56302;52.322;5.926;2023-04-25T04:58:50;4.00;97.90
69189;DHT22;56302;52.322;5.926;2023-04-25T05:01:16;4.10;98.00
69189;DHT22;56302;52.322;5.926;2023-04-25T05:03:41;4.20;98.00
69189;DHT22;56302;52.322;5.926;2023-04-25T05:06:07;4.30;97.90
69189;DHT22;56302;52.322;5.926;2023-04-25T05:08:34;4.20;97.70
69189;DHT22;56302;52.322;5.926;2023-04-25T05:10:59;4.30;97.70
69189;DHT22;56302;52.322;5.926;2023-04-25T05:13:25;4.30;97.50
69189;DHT22;56302;52.322;5.926;2023-04-25T05:15:50;4.30;97.40
69189;DHT22;56302;52.322;5.926;2023-04-25T05:18:16;4.30;97.40
69189;DHT22;56302;52.322;5.926;2023-04-25T05:20:41;4.40;97.40
69189;DHT22;56302;52.322;5.926;2023-04-25T05:23:07;4.40;97.20
69189;DHT22;56302;52.322;5.926;2023-04-25T05:25:33;4.50;97.10
69189;DHT22;56302;52.322;5.926;2023-04-25T05:27:58;4.50;96.90
69189;DHT22;56302;52.322;5.926;2023-04-25T05:30:24;4.60;96.60
69189;DHT22;56302;52.322;5.926;2023-04-25T05:32:50;4.60;96.30
69189;DHT22;56302;52.322;5.926;2023-04-25T05:35:15;4.70;96.20
69189;DHT22;56302;52.322;5.926;2023-04-25T05:37:41;4.70;96.10
69189;DHT22;56302;52.322;5.926;2023-04-25T05:40:08;4.70;96.10
69189;DHT22;56302;52.322;5.926;2023-04-25T05:42:34;4.70;96.10
69189;DHT22;56302;52.322;5.926;2023-04-25T05:44:59;4.80;96.10
69189;DHT22;56302;52.322;5.926;2023-04-25T05:47:26;4.90;95.90
69189;DHT22;56302;52.322;5.926;2023-04-25T05:49:51;4.90;95.90
69189;DHT22;56302;52.322;5.926;2023-04-25T05:52:17;4.90;96.00
69189;DHT22;56302;52.322;5.926;2023-04-25T05:54:42;4.90;95.90
69189;DHT22;56302;52.322;5.926;2023-04-25T05:57:07;4.90;95.80
69189;DHT22;56302;52.322;5.926;2023-04-25T05:59:33;4.90;95.90
69189;DHT22;56302;52.322;5.926;2023-04-25T06:01:59;4.90;96.00
69189;DHT22;56302;52.322;5.926;2023-04-25T06:04:26;4.90;96.00
69189;DHT22;56302;52.322;5.926;2023-04-25T06:06:51;5.00;96.00
69189;DHT22;56302;52.322;5.926;2023-04-25T06:09:17;5.00;95.90
69189;DHT22;56302;52.322;5.926;2023-04-25T06:11:42;4.90;95.90
69189;DHT22;56302;52.322;5.926;2023-04-25T06:14:08;5.00;96.20
69189;DHT22;56302;52.322;5.926;2023-04-25T06:16:33;5.30;96.30
69189;DHT22;56302;52.322;5.926;2023-04-25T06:18:59;5.60;96.50
69189;DHT22;56302;52.322;5.926;2023-04-25T06:21:24;5.90;96.30
69189;DHT22;56302;52.322;5.926;2023-04-25T06:23:50;5.90;95.90
69189;DHT22;56302;52.322;5.926;2023-04-25T06:26:16;5.80;95.50
69189;DHT22;56302;52.322;5.926;2023-04-25T06:28:41;5.70;94.40
69189;DHT22;56302;52.322;5.926;2023-04-25T06:31:07;5.50;94.20
69189;DHT22;56302;52.322;5.926;2023-04-25T06:33:32;5.30;94.60
69189;DHT22;56302;52.322;5.926;2023-04-25T06:35:58;5.20;95.10
69189;DHT22;56302;52.322;5.926;2023-04-25T06:38:23;5.00;95.00
69189;DHT22;56302;52.322;5.926;2023-04-25T06:40:49;5.00;95.50
69189;DHT22;56302;52.322;5.926;2023-04-25T06:43:14;5.10;96.40
69189;DHT22;56302;52.322;5.926;2023-04-25T06:45:40;5.40;96.80
69189;DHT22;56302;52.322;5.926;2023-04-25T06:48:06;5.90;96.70
69189;DHT22;56302;52.322;5.926;2023-04-25T06:50:31;6.20;96.10
69189;DHT22;56302;52.322;5.926;2023-04-25T06:52:57;6.20;95.30
69189;DHT22;56302;52.322;5.926;2023-04-25T06:55:22;6.20;95.20
69189;DHT22;56302;52.322;5.926;2023-04-25T06:57:48;7.50;94.40
69189;DHT22;56302;52.322;5.926;2023-04-25T07:00:14;8.70;89.50
69189;DHT22;56302;52.322;5.926;2023-04-25T07:02:39;8.50;86.00
69189;DHT22;56302;52.322;5.926;2023-04-25T07:05:07;8.40;88.90
69189;DHT22;56302;52.322;5.926;2023-04-25T07:07:33;8.10;89.10
69189;DHT22;56302;52.322;5.926;2023-04-25T07:09:58;8.10;88.30
69189;DHT22;56302;52.322;5.926;2023-04-25T07:12:24;8.30;88.60
69189;DHT22;56302;52.322;5.926;2023-04-25T07:14:49;8.70;86.00
69189;DHT22;56302;52.322;5.926;2023-04-25T07:17:15;11.10;80.40
69189;DHT22;56302;52.322;5.926;2023-04-25T07:19:41;12.90;71.50
69189;DHT22;56302;52.322;5.926;2023-04-25T07:22:07;11.00;70.40
69189;DHT22;56302;52.322;5.926;2023-04-25T07:24:32;9.30;78.90
69189;DHT22;56302;52.322;5.926;2023-04-25T07:26:58;8.40;81.60
69189;DHT22;56302;52.322;5.926;2023-04-25T07:29:24;7.60;83.20
69189;DHT22;56302;52.322;5.926;2023-04-25T07:31:49;7.30;85.50
69189;DHT22;56302;52.322;5.926;2023-04-25T07:34:15;7.10;84.50
69189;DHT22;56302;52.322;5.926;2023-04-25T07:36:41;6.60;86.60
69189;DHT22;56302;52.322;5.926;2023-04-25T07:39:07;5.70;86.60
69189;DHT22;56302;52.322;5.926;2023-04-25T07:41:34;4.50;92.40
69189;DHT22;56302;52.322;5.926;2023-04-25T07:44:00;4.30;94.30
69189;DHT22;56302;52.322;5.926;2023-04-25T07:46:25;4.30;93.50
69189;DHT22;56302;52.322;5.926;2023-04-25T07:48:51;4.70;94.70
69189;DHT22;56302;52.322;5.926;2023-04-25T07:51:17;4.90;94.00
69189;DHT22;56302;52.322;5.926;2023-04-25T07:53:45;4.80;92.80
69189;DHT22;56302;52.322;5.926;2023-04-25T07:56:10;4.60;92.80
69189;DHT22;56302;52.322;5.926;2023-04-25T07:58:36;4.80;94.10
69189;DHT22;56302;52.322;5.926;2023-04-25T08:01:01;5.10;94.30
69189;DHT22;56302;52.322;5.926;2023-04-25T08:03:27;5.50;94.30
69189;DHT22;56302;52.322;5.926;2023-04-25T08:05:52;5.40;91.00
69189;DHT22;56302;52.322;5.926;2023-04-25T08:08:18;6.10;93.90
69189;DHT22;56302;52.322;5.926;2023-04-25T08:10:43;7.00;94.50
69189;DHT22;56302;52.322;5.926;2023-04-25T08:13:09;7.40;92.00
69189;DHT22;56302;52.322;5.926;2023-04-25T08:15:35;8.00;91.60
69189;DHT22;56302;52.322;5.926;2023-04-25T08:18:00;8.20;88.10
69189;DHT22;56302;52.322;5.926;2023-04-25T08:20:26;7.80;87.40
69189;DHT22;56302;52.322;5.926;2023-04-25T08:22:51;8.40;89.40
69189;DHT22;56302;52.322;5.926;2023-04-25T08:25:17;8.70;85.50
69189;DHT22;56302;52.322;5.926;2023-04-25T08:27:43;8.70;86.00
69189;DHT22;56302;52.322;5.926;2023-04-25T08:30:08;9.30;87.90
69189;DHT22;56302;52.322;5.926;2023-04-25T08:32:34;9.70;84.30
69189;DHT22;56302;52.322;5.926;2023-04-25T08:34:59;10.00;84.60
69189;DHT22;56302;52.322;5.926;2023-04-25T08:37:25;9.60;84.20
69189;DHT22;56302;52.322;5.926;2023-04-25T08:39:51;10.20;81.90
69189;DHT22;56302;52.322;5.926;2023-04-25T08:42:21;9.70;80.60
69189;DHT22;56302;52.322;5.926;2023-04-25T08:44:48;9.20;79.90
69189;DHT22;56302;52.322;5.926;2023-04-25T08:47:14;8.70;80.40
69189;DHT22;56302;52.322;5.926;2023-04-25T08:49:45;7.80;84.70
69189;DHT22;56302;52.322;5.926;2023-04-25T08:52:13;6.50;83.70
69189;DHT22;56302;52.322;5.926;2023-04-25T08:54:42;6.00;87.00
69189;DHT22;56302;52.322;5.926;2023-04-25T08:57:09;5.80;89.00
69189;DHT22;56302;52.322;5.926;2023-04-25T08:59:35;5.60;89.00
69189;DHT22;56302;52.322;5.926;2023-04-25T09:02:02;5.60;88.80
69189;DHT22;56302;52.322;5.926;2023-04-25T09:04:31;6.00;90.00
69189;DHT22;56302;52.322;5.926;2023-04-25T09:06:56;6.40;87.70
69189;DHT22;56302;52.322;5.926;2023-04-25T09:09:23;6.60;86.90
69189;DHT22;56302;52.322;5.926;2023-04-25T09:11:49;6.90;86.00
69189;DHT22;56302;52.322;5.926;2023-04-25T09:14:22;7.50;84.00
69189;DHT22;56302;52.322;5.926;2023-04-25T09:16:59;8.00;84.50
69189;DHT22;56302;52.322;5.926;2023-04-25T09:19:30;8.30;81.10
69189;DHT22;56302;52.322;5.926;2023-04-25T09:21:57;8.80;83.50
69189;DHT22;56302;52.322;5.926;2023-04-25T09:24:37;9.00;82.40
69189;DHT22;56302;52.322;5.926;2023-04-25T09:27:04;9.20;79.80
69189;DHT22;56302;52.322;5.926;2023-04-25T09:29:40;9.50;79.50
69189;DHT22;56302;52.322;5.926;2023-04-25T09:32:12;9.10;75.70
69189;DHT22;56302;52.322;5.926;2023-04-25T09:34:42;8.80;77.10
69189;DHT22;56302;52.322;5.926;2023-04-25T09:37:10;8.90;76.40
69189;DHT22;56302;52.322;5.926;2023-04-25T09:39:37;8.60;75.80
69189;DHT22;56302;52.322;5.926;2023-04-25T09:42:06;8.00;74.90
69189;DHT22;56302;52.322;5.926;2023-04-25T09:44:31;7.70;78.50
69189;DHT22;56302;52.322;5.926;2023-04-25T09:46:57;7.50;79.30
69189;DHT22;56302;52.322;5.926;2023-04-25T09:49:25;7.60;79.90
69189;DHT22;56302;52.322;5.926;2023-04-25T09:51:58;8.40;81.70
69189;DHT22;56302;52.322;5.926;2023-04-25T09:54:24;9.40;79.40
69189;DHT22;56302;52.322;5.926;2023-04-25T09:56:52;9.70;73.60
69189;DHT22;56302;52.322;5.926;2023-04-25T09:59:22;8.90;70.20
69189;DHT22;56302;52.322;5.926;2023-04-25T10:01:49;8.40;76.20
69189;DHT22;56302;52.322;5.926;2023-04-25T10:04:20;8.00;73.00
69189;DHT22;56302;52.322;5.926;2023-04-25T10:06:49;7.90;70.90
69189;DHT22;56302;52.322;5.926;2023-04-25T10:09:16;7.80;74.60
69189;DHT22;56302;52.322;5.926;2023-04-25T10:11:44;7.90;75.50
69189;DHT22;56302;52.322;5.926;2023-04-25T10:14:10;8.30;70.00
69189;DHT22;56302;52.322;5.926;2023-04-25T10:16:38;8.50;73.70
69189;DHT22;56302;52.322;5.926;2023-04-25T10:19:05;9.00;71.30
69189;DHT22;56302;52.322;5.926;2023-04-25T10:21:31;9.40;68.70
69189;DHT22;56302;52.322;5.926;2023-04-25T10:23:58;9.60;68.20
69189;DHT22;56302;52.322;5.926;2023-04-25T10:26:24;9.70;65.20
69189;DHT22;56302;52.322;5.926;2023-04-25T10:29:03;10.10;69.40
69189;DHT22;56302;52.322;5.926;2023-04-25T10:31:30;10.40;65.40
69189;DHT22;56302;52.322;5.926;2023-04-25T10:33:56;9.90;67.10
69189;DHT22;56302;52.322;5.926;2023-04-25T10:36:22;9.60;68.10
69189;DHT22;56302;52.322;5.926;2023-04-25T10:38:49;9.50;64.30
69189;DHT22;56302;52.322;5.926;2023-04-25T10:41:19;9.30;64.20
69189;DHT22;56302;52.322;5.926;2023-04-25T10:43:47;8.70;61.50
69189;DHT22;56302;52.322;5.926;2023-04-25T10:46:23;8.50;67.40
69189;DHT22;56302;52.322;5.926;2023-04-25T10:48:51;9.10;65.00
69189;DHT22;56302;52.322;5.926;2023-04-25T10:54:01;10.00;66.00
69189;DHT22;56302;52.322;5.926;2023-04-25T10:56:30;10.40;61.10
69189;DHT22;56302;52.322;5.926;2023-04-25T10:59:13;9.90;56.90
69189;DHT22;56302;52.322;5.926;2023-04-25T11:01:44;10.10;60.60
69189;DHT22;56302;52.322;5.926;2023-04-25T11:04:20;10.40;58.40
69189;DHT22;56302;52.322;5.926;2023-04-25T11:09:45;10.70;58.80
69189;DHT22;56302;52.322;5.926;2023-04-25T11:12:11;10.50;62.40
69189;DHT22;56302;52.322;5.926;2023-04-25T11:14:40;10.90;60.50
69189;DHT22;56302;52.322;5.926;2023-04-25T11:17:06;11.30;60.60
69189;DHT22;56302;52.322;5.926;2023-04-25T11:19:31;11.80;56.70
69189;DHT22;56302;52.322;5.926;2023-04-25T11:21:59;11.30;61.40
69189;DHT22;56302;52.322;5.926;2023-04-25T11:24:30;10.40;64.10
69189;DHT22;56302;52.322;5.926;2023-04-25T11:26:57;10.00;64.90
69189;DHT22;56302;52.322;5.926;2023-04-25T11:29:26;9.40;63.60
69189;DHT22;56302;52.322;5.926;2023-04-25T11:31:52;8.80;65.60
69189;DHT22;56302;52.322;5.926;2023-04-25T11:34:19;8.60;70.80
69189;DHT22;56302;52.322;5.926;2023-04-25T11:36:45;8.80;69.20
69189;DHT22;56302;52.322;5.926;2023-04-25T11:39:11;8.80;66.20
69189;DHT22;56302;52.322;5.926;2023-04-25T11:41:38;8.80;66.50
69189;DHT22;56302;52.322;5.926;2023-04-25T11:44:04;9.80;70.40
69189;DHT22;56302;52.322;5.926;2023-04-25T11:46:30;9.90;62.30
69189;DHT22;56302;52.322;5.926;2023-04-25T11:48:56;9.90;63.70
69189;DHT22;56302;52.322;5.926;2023-04-25T11:51:22;9.70;61.00
69189;DHT22;56302;52.322;5.926;2023-04-25T11:53:48;9.20;58.20
69189;DHT22;56302;52.322;5.926;2023-04-25T11:56:13;9.40;61.30
69189;DHT22;56302;52.322;5.926;2023-04-25T11:59:03;9.60;62.60
69189;DHT22;56302;52.322;5.926;2023-04-25T12:01:37;10.30;56.70
69189;DHT22;56302;52.322;5.926;2023-04-25T12:06:42;10.50;57.10
69189;DHT22;56302;52.322;5.926;2023-04-25T12:09:11;10.50;58.10
69189;DHT22;56302;52.322;5.926;2023-04-25T12:11:53;10.50;58.10
69189;DHT22;56302;52.322;5.926;2023-04-25T12:14:26;10.40;57.00
69189;DHT22;56302;52.322;5.926;2023-04-25T12:16:55;10.00;56.40
69189;DHT22;56302;52.322;5.926;2023-04-25T12:19:21;10.10;55.50
69189;DHT22;56302;52.322;5.926;2023-04-25T12:21:48;10.20;58.80
69189;DHT22;56302;52.322;5.926;2023-04-25T12:27:02;10.10;57.20
69189;DHT22;56302;52.322;5.926;2023-04-25T12:29:30;9.80;58.20
69189;DHT22;56302;52.322;5.926;2023-04-25T12:31:56;9.30;59.50
69189;DHT22;56302;52.322;5.926;2023-04-25T12:34:23;9.20;61.70
69189;DHT22;56302;52.322;5.926;2023-04-25T12:36:49;9.40;60.80
69189;DHT22;56302;52.322;5.926;2023-04-25T12:39:23;9.40;60.00
69189;DHT22;56302;52.322;5.926;2023-04-25T12:41:50;9.30;61.80
69189;DHT22;56302;52.322;5.926;2023-04-25T12:44:15;9.60;62.90
69189;DHT22;56302;52.322;5.926;2023-04-25T12:46:41;9.00;61.30
69189;DHT22;56302;52.322;5.926;2023-04-25T12:49:07;8.80;63.90
69189;DHT22;56302;52.322;5.926;2023-04-25T12:51:34;8.90;63.60
69189;DHT22;56302;52.322;5.926;2023-04-25T12:54:00;8.80;64.30
69189;DHT22;56302;52.322;5.926;2023-04-25T12:56:29;8.60;65.10
69189;DHT22;56302;52.322;5.926;2023-04-25T12:58:55;8.80;66.20
69189;DHT22;56302;52.322;5.926;2023-04-25T13:01:21;8.70;64.50
69189;DHT22;56302;52.322;5.926;2023-04-25T13:03:47;8.70;64.60
69189;DHT22;56302;52.322;5.926;2023-04-25T13:06:13;8.70;66.30
69189;DHT22;56302;52.322;5.926;2023-04-25T13:08:39;9.00;65.50
69189;DHT22;56302;52.322;5.926;2023-04-25T13:11:06;9.00;61.40
69189;DHT22;56302;52.322;5.926;2023-04-25T13:13:32;8.90;64.80
69189;DHT22;56302;52.322;5.926;2023-04-25T13:16:02;8.90;63.80
69189;DHT22;56302;52.322;5.926;2023-04-25T13:18:29;8.90;65.00
69189;DHT22;56302;52.322;5.926;2023-04-25T13:20:56;9.00;64.10
69189;DHT22;56302;52.322;5.926;2023-04-25T13:23:22;9.30;63.10
69189;DHT22;56302;52.322;5.926;2023-04-25T13:25:47;9.50;63.10
69189;DHT22;56302;52.322;5.926;2023-04-25T13:28:13;9.50;60.50
69189;DHT22;56302;52.322;5.926;2023-04-25T13:30:40;9.50;63.00
69189;DHT22;56302;52.322;5.926;2023-04-25T13:33:05;9.40;59.30
69189;DHT22;56302;52.322;5.926;2023-04-25T13:35:33;9.20;61.50
69189;DHT22;56302;52.322;5.926;2023-04-25T13:37:58;9.30;64.40
69189;DHT22;56302;52.322;5.926;2023-04-25T13:40:24;9.70;63.40
69189;DHT22;56302;52.322;5.926;2023-04-25T13:42:50;9.60;61.50
69189;DHT22;56302;52.322;5.926;2023-04-25T13:45:16;9.40;62.50
69189;DHT22;56302;52.322;5.926;2023-04-25T13:47:42;9.70;64.20
69189;DHT22;56302;52.322;5.926;2023-04-25T13:50:08;9.90;62.30
69189;DHT22;56302;52.322;5.926;2023-04-25T13:52:33;9.70;60.60
69189;DHT22;56302;52.322;5.926;2023-04-25T13:54:59;9.00;59.30
69189;DHT22;56302;52.322;5.926;2023-04-25T13:57:26;8.80;63.60
69189;DHT22;56302;52.322;5.926;2023-04-25T13:59:51;8.60;64.80
69189;DHT22;56302;52.322;5.926;2023-04-25T14:02:18;8.80;65.50
69189;DHT22;56302;52.322;5.926;2023-04-25T14:04:43;9.00;65.70
69189;DHT22;56302;52.322;5.926;2023-04-25T14:07:09;9.50;64.00
69189;DHT22;56302;52.322;5.926;2023-04-25T14:09:36;9.90;62.20
69189;DHT22;56302;52.322;5.926;2023-04-25T14:12:02;9.40;61.80
69189;DHT22;56302;52.322;5.926;2023-04-25T14:14:27;9.00;60.50
69189;DHT22;56302;52.322;5.926;2023-04-25T14:16:53;8.80;63.80
69189;DHT22;56302;52.322;5.926;2023-04-25T14:19:20;8.90;63.80
69189;DHT22;56302;52.322;5.926;2023-04-25T14:21:46;8.90;63.50
69189;DHT22;56302;52.322;5.926;2023-04-25T14:24:11;8.90;62.60
69189;DHT22;56302;52.322;5.926;2023-04-25T14:26:37;9.20;65.00
69189;DHT22;56302;52.322;5.926;2023-04-25T14:29:04;9.60;60.60
69189;DHT22;56302;52.322;5.926;2023-04-25T14:31:31;9.50;60.00
69189;DHT22;56302;52.322;5.926;2023-04-25T14:33:56;9.30;62.60
69189;DHT22;56302;52.322;5.926;2023-04-25T14:36:22;9.10;63.50
69189;DHT22;56302;52.322;5.926;2023-04-25T14:38:47;8.90;65.00
69189;DHT22;56302;52.322;5.926;2023-04-25T14:41:13;9.20;64.30
69189;DHT22;56302;52.322;5.926;2023-04-25T14:43:38;9.30;60.20
69189;DHT22;56302;52.322;5.926;2023-04-25T14:46:06;9.30;57.00
69189;DHT22;56302;52.322;5.926;2023-04-25T14:48:32;9.40;59.50
69189;DHT22;56302;52.322;5.926;2023-04-25T14:50:59;9.70;58.70
69189;DHT22;56302;52.322;5.926;2023-04-25T14:53:25;9.40;59.10
69189;DHT22;56302;52.322;5.926;2023-04-25T14:55:51;9.40;61.60
69189;DHT22;56302;52.322;5.926;2023-04-25T14:58:16;9.20;62.90
69189;DHT22;56302;52.322;5.926;2023-04-25T15:00:42;9.20;60.00
69189;DHT22;56302;52.322;5.926;2023-04-25T15:03:08;9.30;58.40
69189;DHT22;56302;52.322;5.926;2023-04-25T15:05:34;9.30;56.70
69189;DHT22;56302;52.322;5.926;2023-04-25T15:08:01;9.10;56.20
69189;DHT22;56302;52.322;5.926;2023-04-25T15:10:26;9.00;57.80
69189;DHT22;56302;52.322;5.926;2023-04-25T15:12:53;9.00;54.20
69189;DHT22;56302;52.322;5.926;2023-04-25T15:15:19;8.90;56.50
69189;DHT22;56302;52.322;5.926;2023-04-25T15:17:44;9.00;56.00
69189;DHT22;56302;52.322;5.926;2023-04-25T15:20:12;9.20;56.80
69189;DHT22;56302;52.322;5.926;2023-04-25T15:22:40;9.30;56.60
69189;DHT22;56302;52.322;5.926;2023-04-25T15:25:07;9.00;55.80
69189;DHT22;56302;52.322;5.926;2023-04-25T15:27:34;8.80;58.20
69189;DHT22;56302;52.322;5.926;2023-04-25T15:30:04;8.70;61.40
69189;DHT22;56302;52.322;5.926;2023-04-25T15:32:49;8.90;62.80
69189;DHT22;56302;52.322;5.926;2023-04-25T15:35:15;9.20;63.10
69189;DHT22;56302;52.322;5.926;2023-04-25T15:37:40;9.40;63.60
69189;DHT22;56302;52.322;5.926;2023-04-25T15:40:12;9.40;64.80
69189;DHT22;56302;52.322;5.926;2023-04-25T15:42:40;9.30;64.40
69189;DHT22;56302;52.322;5.926;2023-04-25T15:45:08;9.40;64.60
69189;DHT22;56302;52.322;5.926;2023-04-25T15:47:35;9.20;62.70
69189;DHT22;56302;52.322;5.926;2023-04-25T15:50:01;9.10;63.90
69189;DHT22;56302;52.322;5.926;2023-04-25T15:52:28;9.10;63.70